Terminal Aerodrome Forecast
Issued by NWS Shreveport, LA

Home | Current Version | Previous Version | Text Only | Print | Product List | Glossary On
Versions: 1 2 3 4 5 6 7 8 9 10 11 12 13 14 15 16
000
FTUS44 KSHV 241100 AAA
TAFELD
TAF AMD
KELD 241147Z 2412/2512 35003KT 1SM BR OVC002
      TEMPO 2412/2413 1/2SM FG
     FM241400 36005KT P6SM BKN015
      TEMPO 2415/2416 SCT015
     FM241600 02007KT P6SM SCT030
     FM241800 04008KT P6SM SCT050
     FM250200 06004KT P6SM SKC=

USA.gov is the U.S. government's official web portal to all federal, state and local government web resources and services.